createdAt,value
2024-04-18T00:00:17.411Z,73.76
2024-04-18T00:03:18.886Z,73.97
2024-04-18T00:06:20.389Z,73.90
2024-04-18T00:09:21.821Z,73.88
2024-04-18T00:12:23.276Z,74.14
2024-04-18T00:15:25.107Z,74.38
2024-04-18T00:18:26.693Z,74.82
2024-04-18T00:21:28.064Z,74.83
2024-04-18T00:24:29.633Z,75.49
2024-04-18T00:27:31.097Z,75.50
2024-04-18T00:30:32.623Z,75.05
2024-04-18T00:33:34.191Z,75.41
2024-04-18T00:36:35.820Z,75.95
2024-04-18T00:39:37.329Z,76.09
2024-04-18T00:42:39.397Z,76.45
2024-04-18T00:45:41.034Z,76.20
2024-04-18T00:48:42.600Z,75.85
2024-04-18T00:51:44.631Z,75.48
2024-04-18T00:54:47.385Z,75.49
2024-04-18T00:57:49.197Z,75.69
2024-04-18T01:00:51.278Z,75.39
2024-04-18T01:03:52.945Z,75.52
2024-04-18T01:06:54.320Z,75.57
2024-04-18T01:09:55.810Z,76.14
2024-04-18T01:12:57.973Z,75.84
2024-04-18T01:15:59.352Z,75.53
2024-04-18T01:19:00.861Z,75.12
2024-04-18T01:22:05.070Z,74.81
2024-04-18T01:25:07.431Z,74.89
2024-04-18T01:28:08.925Z,74.90
2024-04-18T01:31:10.368Z,75.23
2024-04-18T01:34:12.222Z,75.16
2024-04-18T01:37:13.879Z,75.31
2024-04-18T01:40:15.251Z,75.44
2024-04-18T01:43:16.704Z,75.68
2024-04-18T01:46:20.223Z,75.44
2024-04-18T01:49:21.669Z,75.55
2024-04-18T01:52:23.066Z,75.79
2024-04-18T01:55:24.490Z,75.58
2024-04-18T01:58:25.907Z,75.57
2024-04-18T02:01:27.330Z,75.66
2024-04-18T02:04:28.919Z,76.13
2024-04-18T02:07:30.403Z,76.22
2024-04-18T02:10:31.817Z,76.12
2024-04-18T02:13:33.783Z,76.35
2024-04-18T02:16:35.312Z,76.35
2024-04-18T02:19:36.729Z,76.17
2024-04-18T02:22:38.199Z,76.25
2024-04-18T02:25:39.769Z,76.15
2024-04-18T02:28:41.598Z,75.88
2024-04-18T02:31:42.993Z,75.68
2024-04-18T02:34:44.406Z,75.71
2024-04-18T02:37:45.780Z,75.22
2024-04-18T02:40:47.258Z,75.46
2024-04-18T02:43:52.985Z,75.60
2024-04-18T02:46:54.558Z,75.87
2024-04-18T02:49:55.944Z,76.19
2024-04-18T02:52:57.326Z,76.23
2024-04-18T02:55:58.671Z,76.23
2024-04-18T02:59:00.085Z,75.88
2024-04-18T03:02:01.469Z,76.10
2024-04-18T03:05:02.973Z,75.76
2024-04-18T03:08:04.806Z,75.84
2024-04-18T03:11:06.215Z,75.89
2024-04-18T03:14:07.576Z,75.95
2024-04-18T03:17:09.895Z,76.50
2024-04-18T03:20:11.301Z,76.55
2024-04-18T03:23:12.840Z,76.34
2024-04-18T03:26:14.446Z,75.93
2024-04-18T03:29:16.239Z,75.86
2024-04-18T03:32:17.536Z,75.84
2024-04-18T03:35:18.938Z,76.14
2024-04-18T03:38:20.272Z,75.80
2024-04-18T03:41:21.795Z,75.73
2024-04-18T03:44:23.343Z,75.78
2024-04-18T03:47:24.823Z,76.36
2024-04-18T03:50:26.267Z,76.73
2024-04-18T03:53:27.732Z,76.73
2024-04-18T03:56:29.130Z,76.48
2024-04-18T03:59:33.386Z,76.71
2024-04-18T04:02:34.834Z,76.43
2024-04-18T04:05:36.338Z,76.38
2024-04-18T04:08:38.457Z,76.39
2024-04-18T04:11:39.852Z,76.10
2024-04-18T04:14:41.291Z,76.29
2024-04-18T04:17:45.422Z,75.87
2024-04-18T04:20:46.926Z,76.06
2024-04-18T04:23:48.599Z,76.36
2024-04-18T04:26:51.180Z,76.73
2024-04-18T04:29:52.597Z,76.73
2024-04-18T04:32:54.075Z,76.72
2024-04-18T04:35:56.130Z,76.89
2024-04-18T04:38:57.508Z,76.66
2024-04-18T04:41:59.114Z,76.70
2024-04-18T04:45:00.502Z,75.88
2024-04-18T04:48:01.958Z,76.33
2024-04-18T04:51:03.449Z,76.22
2024-04-18T04:54:05.176Z,76.47
2024-04-18T04:57:06.443Z,76.51
2024-04-18T05:00:08.524Z,77.00
2024-04-18T05:03:10.246Z,76.91
2024-04-18T05:06:11.579Z,76.67
2024-04-18T05:09:16.658Z,77.00
2024-04-18T05:12:18.142Z,77.74
2024-04-18T05:15:20.100Z,77.83
2024-04-18T05:18:21.525Z,77.87
2024-04-18T05:21:23.054Z,77.48
2024-04-18T05:24:24.559Z,77.30
2024-04-18T05:27:26.044Z,77.19
2024-04-18T05:30:27.582Z,77.22
2024-04-18T05:33:29.251Z,77.11
2024-04-18T05:36:30.609Z,77.15
2024-04-18T05:39:32.001Z,76.84
2024-04-18T05:42:33.767Z,76.88
2024-04-18T05:45:35.392Z,76.77
2024-04-18T05:48:36.852Z,76.82
2024-04-18T05:51:38.295Z,76.25
2024-04-18T05:54:39.855Z,76.18
2024-04-18T05:57:41.223Z,76.15
2024-04-18T06:00:43.777Z,76.87
2024-04-18T06:03:45.292Z,75.52
2024-04-18T06:06:46.646Z,75.48
2024-04-18T06:09:48.300Z,75.83
2024-04-18T06:12:49.865Z,76.50
2024-04-18T06:15:52.283Z,75.46
2024-04-18T06:18:55.878Z,75.17
2024-04-18T06:21:57.417Z,73.60
2024-04-18T06:24:58.907Z,71.77
2024-04-18T06:28:00.528Z,72.48
2024-04-18T06:31:02.147Z,72.95
2024-04-18T06:34:03.780Z,73.53
2024-04-18T06:37:08.008Z,73.28
2024-04-18T06:40:10.006Z,72.61
2024-04-18T06:43:11.545Z,72.55
2024-04-18T06:46:12.873Z,72.82
2024-04-18T06:49:14.225Z,73.19
2024-04-18T06:52:15.698Z,74.43
2024-04-18T06:55:17.094Z,74.55
2024-04-18T06:58:18.503Z,74.37
2024-04-18T07:01:19.938Z,74.46
2024-04-18T07:04:21.404Z,73.55
2024-04-18T07:07:22.872Z,72.00
2024-04-18T07:10:24.314Z,70.21
2024-04-18T07:13:25.747Z,70.88
2024-04-18T07:16:27.188Z,70.54
2024-04-18T07:19:28.655Z,70.20
2024-04-18T07:22:30.695Z,70.57
2024-04-18T07:25:32.606Z,69.78
2024-04-18T07:28:42.556Z,70.03
2024-04-18T07:31:44.087Z,68.59
2024-04-18T07:34:45.512Z,67.70
2024-04-18T07:37:47.043Z,68.28
2024-04-18T07:40:48.419Z,67.96
2024-04-18T07:43:50.457Z,66.24
2024-04-18T07:46:56.492Z,66.09
2024-04-18T07:49:57.987Z,67.12
2024-04-18T07:53:07.646Z,66.99
2024-04-18T07:56:11.594Z,65.45
2024-04-18T07:59:14.101Z,64.51
2024-04-18T08:02:18.343Z,65.13
2024-04-18T08:05:22.509Z,65.34
2024-04-18T08:08:28.874Z,63.63
2024-04-18T08:12:04.122Z,62.55
2024-04-18T08:14:55.907Z,62.83
2024-04-18T08:17:59.934Z,62.03
2024-04-18T08:21:01.524Z,61.78
2024-04-18T08:24:04.498Z,60.66
2024-04-18T08:27:07.219Z,60.47
2024-04-18T08:30:09.339Z,59.89
2024-04-18T08:33:12.409Z,59.70
2024-04-18T08:36:13.891Z,60.85
2024-04-18T08:39:15.840Z,60.54
2024-04-18T08:42:22.807Z,58.77
2024-04-18T08:45:26.787Z,57.64
2024-04-18T08:48:30.540Z,55.17
2024-04-18T08:51:34.581Z,56.43
2024-04-18T08:54:38.583Z,55.51
2024-04-18T08:58:02.906Z,56.54
2024-04-18T09:01:15.021Z,57.34
2024-04-18T09:04:18.618Z,59.44
2024-04-18T09:07:28.670Z,58.29
2024-04-18T09:10:30.841Z,57.00
2024-04-18T09:13:32.324Z,57.05
2024-04-18T09:16:34.011Z,56.53
2024-04-18T09:19:35.528Z,55.58
2024-04-18T09:22:36.956Z,55.25
2024-04-18T09:25:45.840Z,52.90
2024-04-18T09:28:50.870Z,52.90
2024-04-18T09:32:26.838Z,53.37
2024-04-18T09:35:31.620Z,52.35
2024-04-18T09:42:01.790Z,51.95
2024-04-18T09:45:08.062Z,50.47
2024-04-18T09:48:16.878Z,50.61
2024-04-18T09:51:21.783Z,50.67
2024-04-18T09:54:24.034Z,50.17
2024-04-18T09:57:29.185Z,49.96
2024-04-18T10:00:37.326Z,49.84
2024-04-18T10:03:39.599Z,48.82
2024-04-18T10:06:42.501Z,49.18
2024-04-18T10:09:49.710Z,49.58
2024-04-18T10:13:12.122Z,48.24
2024-04-18T10:16:14.814Z,48.53
2024-04-18T10:19:24.023Z,43.87
2024-04-18T10:22:45.226Z,46.46
2024-04-18T10:25:49.175Z,46.47
2024-04-18T10:28:50.919Z,46.03
2024-04-18T10:31:53.573Z,47.30
2024-04-18T10:35:00.800Z,47.88
2024-04-18T10:38:02.380Z,48.76
2024-04-18T10:41:04.830Z,49.36
2024-04-18T10:44:09.095Z,49.57
2024-04-18T10:47:10.611Z,48.57
2024-04-18T10:50:19.144Z,48.46
2024-04-18T10:53:23.244Z,48.92
2024-04-18T10:56:24.761Z,49.26
2024-04-18T10:59:26.259Z,49.01
2024-04-18T11:02:33.984Z,47.73
2024-04-18T11:05:35.742Z,46.57
2024-04-18T11:08:37.266Z,45.58
2024-04-18T11:11:38.767Z,45.69
2024-04-18T11:14:40.442Z,45.72
2024-04-18T11:17:42.132Z,46.32
2024-04-18T11:20:46.405Z,46.66
2024-04-18T11:23:59.312Z,46.53
2024-04-18T11:27:03.990Z,47.12
2024-04-18T11:30:06.460Z,48.33
2024-04-18T11:33:11.142Z,49.22
2024-04-18T11:36:14.660Z,50.16
2024-04-18T11:39:16.117Z,50.84
2024-04-18T11:42:17.592Z,51.82
2024-04-18T11:45:19.097Z,52.26
2024-04-18T11:48:39.887Z,52.50
2024-04-18T11:51:42.733Z,52.99
2024-04-18T11:54:44.102Z,53.16
2024-04-18T11:57:48.176Z,53.12
2024-04-18T12:01:11.250Z,53.07
2024-04-18T12:04:12.840Z,52.54
2024-04-18T12:07:14.286Z,52.53
2024-04-18T12:10:15.760Z,51.75
2024-04-18T12:13:18.377Z,51.64
2024-04-18T12:16:19.830Z,50.09
2024-04-18T12:19:23.630Z,50.31
2024-04-18T12:22:25.027Z,49.43
2024-04-18T12:25:26.507Z,49.20
2024-04-18T12:28:30.426Z,50.04
2024-04-18T12:31:34.623Z,50.08
2024-04-18T12:34:38.866Z,49.50
2024-04-18T12:37:50.868Z,49.65
2024-04-18T12:40:52.247Z,48.95
2024-04-18T12:43:55.007Z,48.42
2024-04-18T12:46:56.464Z,48.41
2024-04-18T12:49:57.933Z,48.74
2024-04-18T12:52:59.316Z,48.51
2024-04-18T12:56:00.782Z,48.05
2024-04-18T12:59:02.428Z,46.01
2024-04-18T13:02:04.056Z,46.89
2024-04-18T13:05:05.601Z,46.83
2024-04-18T13:08:17.277Z,47.23
2024-04-18T13:11:33.010Z,47.04
2024-04-18T13:14:34.437Z,46.27
2024-04-18T13:17:35.965Z,45.62
2024-04-18T13:20:37.797Z,45.39
2024-04-18T13:23:39.556Z,44.61
2024-04-18T13:26:41.030Z,42.98
2024-04-18T13:29:42.441Z,43.93
2024-04-18T13:32:43.930Z,43.85
2024-04-18T13:35:47.257Z,44.15
2024-04-18T13:38:49.576Z,43.86
2024-04-18T13:41:52.256Z,44.12
2024-04-18T13:44:54.563Z,44.59
2024-04-18T13:48:03.453Z,45.08
2024-04-18T13:51:05.151Z,45.40
2024-04-18T13:54:06.694Z,44.94
2024-04-18T13:57:08.221Z,45.64
2024-04-18T14:00:10.324Z,45.13
2024-04-18T14:03:11.972Z,43.55
2024-04-18T14:06:13.512Z,41.69
2024-04-18T14:09:15.034Z,41.12
2024-04-18T14:12:16.582Z,42.16
2024-04-18T14:15:20.093Z,43.38
2024-04-18T14:18:21.629Z,44.51
2024-04-18T14:21:23.136Z,44.65
2024-04-18T14:24:24.819Z,45.39
2024-04-18T14:27:27.499Z,45.51
2024-04-18T14:30:30.386Z,45.84
2024-04-18T14:33:31.848Z,45.86
2024-04-18T14:36:33.333Z,46.18
2024-04-18T14:39:34.732Z,46.64
2024-04-18T14:42:36.251Z,46.39
2024-04-18T14:45:37.915Z,46.82
2024-04-18T14:48:47.649Z,47.02
2024-04-18T14:51:53.511Z,47.12
2024-04-18T14:54:57.609Z,47.50
2024-04-18T14:58:04.836Z,47.64
2024-04-18T15:01:06.261Z,48.01
2024-04-18T15:04:10.383Z,48.02
2024-04-18T15:07:11.846Z,48.43
2024-04-18T15:10:13.469Z,48.55
2024-04-18T15:13:15.049Z,48.54
2024-04-18T15:16:18.719Z,49.02
2024-04-18T15:19:20.376Z,49.13
2024-04-18T15:22:21.908Z,48.98
2024-04-18T15:25:41.108Z,48.82
2024-04-18T15:28:46.944Z,48.87
2024-04-18T15:31:48.856Z,48.74
2024-04-18T15:34:50.887Z,48.87
2024-04-18T15:37:54.540Z,48.86
2024-04-18T15:40:57.886Z,49.37
2024-04-18T15:44:02.344Z,49.59
2024-04-18T15:47:03.956Z,49.92
2024-04-18T15:50:05.790Z,50.29
2024-04-18T15:53:07.852Z,50.51
2024-04-18T15:56:09.425Z,50.70
2024-04-18T15:59:10.980Z,51.03
2024-04-18T16:02:12.647Z,51.08
2024-04-18T16:05:14.164Z,51.33
2024-04-18T16:08:15.919Z,51.47
2024-04-18T16:11:17.634Z,51.32
2024-04-18T16:14:25.101Z,51.69
2024-04-18T16:17:26.502Z,51.60
2024-04-18T16:20:28.012Z,51.38
2024-04-18T16:23:29.462Z,51.64
2024-04-18T16:26:30.769Z,51.68
2024-04-18T16:29:32.179Z,51.84
2024-04-18T16:32:33.539Z,51.66
2024-04-18T16:35:38.163Z,51.95
2024-04-18T16:38:39.851Z,52.17
2024-04-18T16:41:41.776Z,52.21
2024-04-18T16:44:43.382Z,52.10
2024-04-18T16:47:44.854Z,52.40
2024-04-18T16:50:46.217Z,52.34
2024-04-18T16:53:51.517Z,52.53
2024-04-18T16:56:52.934Z,52.65
2024-04-18T16:59:54.265Z,52.79
2024-04-18T17:02:55.700Z,52.41
2024-04-18T17:06:03.399Z,52.47
2024-04-18T17:09:07.095Z,52.67
2024-04-18T17:12:08.780Z,52.63
2024-04-18T17:15:10.190Z,52.81
2024-04-18T17:18:18.768Z,52.82
2024-04-18T17:21:20.326Z,53.07
2024-04-18T17:24:21.630Z,53.18
2024-04-18T17:27:23.118Z,53.18
2024-04-18T17:30:24.483Z,53.41
2024-04-18T17:33:26.119Z,53.56
2024-04-18T17:36:27.423Z,53.50
2024-04-18T17:39:29.015Z,53.52
2024-04-18T17:42:30.485Z,53.67
2024-04-18T17:45:31.906Z,53.59
2024-04-18T17:48:33.735Z,53.57
2024-04-18T17:51:35.296Z,53.44
2024-04-18T17:54:36.715Z,53.62
2024-04-18T17:57:38.143Z,53.78
2024-04-18T18:00:39.750Z,53.82
2024-04-18T18:03:41.250Z,53.84
2024-04-18T18:06:42.846Z,53.75
2024-04-18T18:09:44.386Z,54.02
2024-04-18T18:12:46.018Z,53.82
2024-04-18T18:15:47.421Z,53.95
2024-04-18T18:18:49.099Z,54.15
2024-04-18T18:22:00.988Z,54.10
2024-04-18T18:25:06.712Z,54.78
2024-04-18T18:28:08.086Z,55.34
2024-04-18T18:31:09.448Z,55.86
2024-04-18T18:34:16.094Z,56.94
2024-04-18T18:37:17.579Z,57.76
2024-04-18T18:40:19.015Z,58.21
2024-04-18T18:43:20.454Z,58.59
2024-04-18T18:46:21.787Z,59.39
2024-04-18T18:49:23.289Z,59.72
2024-04-18T18:52:24.594Z,60.21
2024-04-18T18:55:28.764Z,60.81
2024-04-18T18:58:43.952Z,60.90
2024-04-18T19:01:51.953Z,60.97
2024-04-18T19:04:53.492Z,60.93
2024-04-18T19:07:54.920Z,60.84
2024-04-18T19:10:56.657Z,60.77
2024-04-18T19:13:58.407Z,60.62
2024-04-18T19:16:59.848Z,60.60
2024-04-18T19:20:01.645Z,60.91
2024-04-18T19:23:05.057Z,60.98
2024-04-18T19:26:06.736Z,61.39
2024-04-18T19:29:08.087Z,61.67
2024-04-18T19:32:09.494Z,61.89
2024-04-18T19:35:13.695Z,62.22
2024-04-18T19:38:16.940Z,62.25
2024-04-18T19:41:18.503Z,62.41
2024-04-18T19:44:19.858Z,62.49
2024-04-18T19:47:24.761Z,62.99
2024-04-18T19:50:27.134Z,63.04
2024-04-18T19:53:28.553Z,62.85
2024-04-18T19:56:30.076Z,62.88
2024-04-18T19:59:31.611Z,63.37
2024-04-18T20:02:33.016Z,63.76
2024-04-18T20:05:35.468Z,64.12
2024-04-18T20:08:36.818Z,64.10
2024-04-18T20:11:38.274Z,64.28
2024-04-18T20:14:39.677Z,64.56
2024-04-18T20:17:41.213Z,64.31
2024-04-18T20:20:42.809Z,64.44
2024-04-18T20:23:44.295Z,64.26
2024-04-18T20:26:45.622Z,64.26
2024-04-18T20:29:47.365Z,64.10
2024-04-18T20:32:48.930Z,64.58
2024-04-18T20:35:50.351Z,64.88
2024-04-18T20:38:51.725Z,64.86
2024-04-18T20:41:53.128Z,64.97
2024-04-18T20:44:54.546Z,65.08
2024-04-18T20:47:55.981Z,65.85
2024-04-18T20:50:57.354Z,65.29
2024-04-18T20:53:58.726Z,65.18
2024-04-18T20:57:00.060Z,65.27
2024-04-18T21:00:01.547Z,65.24
2024-04-18T21:03:03.105Z,65.40
2024-04-18T21:06:04.648Z,65.03
2024-04-18T21:09:06.165Z,65.29
2024-04-18T21:12:07.832Z,65.18
2024-04-18T21:15:09.212Z,65.40
2024-04-18T21:18:10.967Z,65.47
2024-04-18T21:21:12.438Z,65.46
2024-04-18T21:24:14.119Z,65.58
2024-04-18T21:27:15.466Z,65.74
2024-04-18T21:30:17.227Z,65.63
2024-04-18T21:33:18.816Z,66.31
2024-04-18T21:36:20.535Z,66.25
2024-04-18T21:39:21.983Z,66.90
2024-04-18T21:42:23.635Z,66.86
2024-04-18T21:45:25.198Z,66.77
2024-04-18T21:48:27.227Z,66.92
2024-04-18T21:51:29.255Z,66.87
2024-04-18T21:54:30.764Z,67.42
2024-04-18T21:57:32.266Z,67.57
2024-04-18T22:00:33.865Z,68.27
2024-04-18T22:03:35.836Z,67.99
2024-04-18T22:06:37.481Z,68.36
2024-04-18T22:09:38.902Z,68.65
2024-04-18T22:12:40.474Z,67.99
2024-04-18T22:15:42.036Z,68.50
2024-04-18T22:18:43.694Z,68.00
2024-04-18T22:21:45.235Z,68.15
2024-04-18T22:24:46.785Z,68.35
2024-04-18T22:27:48.322Z,68.80
2024-04-18T22:31:00.036Z,68.27
2024-04-18T22:34:01.531Z,68.24
2024-04-18T22:37:03.067Z,68.59
2024-04-18T22:40:05.060Z,68.71
2024-04-18T22:43:06.501Z,68.92
2024-04-18T22:46:08.027Z,68.60
2024-04-18T22:49:09.564Z,68.68
2024-04-18T22:52:11.010Z,69.42
2024-04-18T22:55:12.499Z,69.32
2024-04-18T22:58:14.002Z,69.36
2024-04-18T23:01:15.652Z,69.90
2024-04-18T23:04:17.359Z,69.66
2024-04-18T23:07:18.915Z,69.81
2024-04-18T23:10:20.447Z,69.92
2024-04-18T23:13:21.887Z,69.81
2024-04-18T23:16:23.657Z,70.11
2024-04-18T23:19:25.170Z,69.90
2024-04-18T23:22:26.770Z,70.01
2024-04-18T23:25:28.473Z,69.92
2024-04-18T23:28:29.933Z,70.03
2024-04-18T23:31:31.373Z,70.42
2024-04-18T23:34:32.976Z,70.15
2024-04-18T23:37:34.498Z,70.03
2024-04-18T23:40:36.002Z,70.19
2024-04-18T23:43:37.537Z,70.27
2024-04-18T23:46:40.522Z,70.26
2024-04-18T23:49:41.959Z,70.54
2024-04-18T23:53:02.504Z,70.79
2024-04-18T23:56:22.869Z,71.16
2024-04-18T23:59:24.428Z,71.11
